sensor_id;sensor_type;location;lat;lon;timestamp;pressure;altitude;pressure_sealevel;temperature;humidity
47636;BME280;33364;50.766;15.338;2024-03-02T00:01:04;94002.53;;;7.39;100.00
47636;BME280;33364;50.766;15.338;2024-03-02T00:03:44;94002.81;;;7.37;100.00
47636;BME280;33364;50.766;15.338;2024-03-02T00:06:10;93989.09;;;7.40;100.00
47636;BME280;33364;50.766;15.338;2024-03-02T00:08:36;93993.28;;;7.41;100.00
47636;BME280;33364;50.766;15.338;2024-03-02T00:11:01;93999.03;;;7.43;100.00
47636;BME280;33364;50.766;15.338;2024-03-02T00:13:31;93990.44;;;7.38;100.00
47636;BME280;33364;50.766;15.338;2024-03-02T00:15:58;93990.97;;;7.40;100.00
47636;BME280;33364;50.766;15.338;2024-03-02T00:18:31;93998.06;;;7.39;100.00
47636;BME280;33364;50.766;15.338;2024-03-02T00:20:58;93990.44;;;7.38;100.00
47636;BME280;33364;50.766;15.338;2024-03-02T00:23:27;93992.81;;;7.39;100.00
47636;BME280;33364;50.766;15.338;2024-03-02T00:25:54;93989.16;;;7.35;100.00
47636;BME280;33364;50.766;15.338;2024-03-02T00:28:29;93989.09;;;7.40;100.00
47636;BME280;33364;50.766;15.338;2024-03-02T00:31:01;93986.97;;;7.42;100.00
47636;BME280;33364;50.766;15.338;2024-03-02T00:33:31;93984.41;;;7.37;100.00
47636;BME280;33364;50.766;15.338;2024-03-02T00:35:58;93991.50;;;7.37;100.00
47636;BME280;33364;50.766;15.338;2024-03-02T00:38:26;93995.19;;;7.36;100.00
47636;BME280;33364;50.766;15.338;2024-03-02T00:40:53;93990.66;;;7.41;100.00
47636;BME280;33364;50.766;15.338;2024-03-02T00:46:00;93986.97;;;7.42;100.00
47636;BME280;33364;50.766;15.338;2024-03-02T00:48:26;93996.41;;;7.43;100.00
47636;BME280;33364;50.766;15.338;2024-03-02T00:50:52;93990.25;;;7.34;100.00
47636;BME280;33364;50.766;15.338;2024-03-02T00:53:21;93988.41;;;7.35;100.00
47636;BME280;33364;50.766;15.338;2024-03-02T00:55:50;93988.88;;;7.37;100.00
47636;BME280;33364;50.766;15.338;2024-03-02T00:58:16;93991.31;;;7.33;100.00
47636;BME280;33364;50.766;15.338;2024-03-02T01:00:42;93987.63;;;7.34;100.00
47636;BME280;33364;50.766;15.338;2024-03-02T01:03:08;93992.88;;;7.34;100.00
47636;BME280;33364;50.766;15.338;2024-03-02T01:05:34;93994.22;;;7.32;100.00
47636;BME280;33364;50.766;15.338;2024-03-02T01:08:00;93991.88;;;7.30;100.00
47636;BME280;33364;50.766;15.338;2024-03-02T01:10:26;93997.13;;;7.30;100.00
47636;BME280;33364;50.766;15.338;2024-03-02T01:12:52;93997.34;;;7.34;100.00
47636;BME280;33364;50.766;15.338;2024-03-02T01:15:17;93986.53;;;7.35;100.00
47636;BME280;33364;50.766;15.338;2024-03-02T01:17:43;93991.31;;;7.33;100.00
47636;BME280;33364;50.766;15.338;2024-03-02T01:20:09;93998.22;;;7.29;100.00
47636;BME280;33364;50.766;15.338;2024-03-02T01:22:35;93985.66;;;7.26;100.00
47636;BME280;33364;50.766;15.338;2024-03-02T01:25:01;93988.78;;;7.28;100.00
47636;BME280;33364;50.766;15.338;2024-03-02T01:27:27;93986.72;;;7.25;100.00
47636;BME280;33364;50.766;15.338;2024-03-02T01:29:53;93983.63;;;7.23;100.00
47636;BME280;33364;50.766;15.338;2024-03-02T01:32:20;93983.63;;;7.23;100.00
47636;BME280;33364;50.766;15.338;2024-03-02T01:34:45;93981.00;;;7.23;100.00
47636;BME280;33364;50.766;15.338;2024-03-02T01:37:11;93985.19;;;7.24;100.00
47636;BME280;33364;50.766;15.338;2024-03-02T01:39:37;93977.78;;;7.26;100.00
47636;BME280;33364;50.766;15.338;2024-03-02T01:42:03;93969.34;;;7.29;100.00
47636;BME280;33364;50.766;15.338;2024-03-02T01:44:29;93975.16;;;7.26;100.00
47636;BME280;33364;50.766;15.338;2024-03-02T01:46:55;93973.09;;;7.23;100.00
47636;BME280;33364;50.766;15.338;2024-03-02T01:49:20;93977.59;;;7.22;100.00
47636;BME280;33364;50.766;15.338;2024-03-02T01:51:46;93976.28;;;7.20;100.00
47636;BME280;33364;50.766;15.338;2024-03-02T01:54:11;93976.53;;;7.24;100.00
47636;BME280;33364;50.766;15.338;2024-03-02T01:56:37;93979.16;;;7.24;100.00
47636;BME280;33364;50.766;15.338;2024-03-02T01:59:03;93983.09;;;7.21;100.00
47636;BME280;33364;50.766;15.338;2024-03-02T02:01:29;93978.84;;;7.25;100.00
47636;BME280;33364;50.766;15.338;2024-03-02T02:03:55;93981.19;;;7.27;100.00
47636;BME280;33364;50.766;15.338;2024-03-02T02:06:21;93978.44;;;7.18;100.00
47636;BME280;33364;50.766;15.338;2024-03-02T02:08:47;93974.25;;;7.17;100.00
47636;BME280;33364;50.766;15.338;2024-03-02T02:11:16;93970.41;;;7.28;100.00
47636;BME280;33364;50.766;15.338;2024-03-02T02:13:42;93968.72;;;7.18;100.00
47636;BME280;33364;50.766;15.338;2024-03-02T02:16:08;93975.31;;;7.16;100.00
47636;BME280;33364;50.766;15.338;2024-03-02T02:18:34;93980.47;;;7.21;100.00
47636;BME280;33364;50.766;15.338;2024-03-02T02:21:01;93974.75;;;7.19;100.00
47636;BME280;33364;50.766;15.338;2024-03-02T02:23:27;93975.31;;;7.16;100.00
47636;BME280;33364;50.766;15.338;2024-03-02T02:25:53;93973.19;;;7.18;100.00
47636;BME280;33364;50.766;15.338;2024-03-02T02:28:18;93971.13;;;7.15;100.00
47636;BME280;33364;50.766;15.338;2024-03-02T02:30:44;93970.84;;;7.16;100.00
47636;BME280;33364;50.766;15.338;2024-03-02T02:33:10;93977.06;;;7.20;100.00
47636;BME280;33364;50.766;15.338;2024-03-02T02:35:36;93981.16;;;7.13;100.00
47636;BME280;33364;50.766;15.338;2024-03-02T02:38:02;93974.63;;;7.10;100.00
47636;BME280;33364;50.766;15.338;2024-03-02T02:40:29;93982.69;;;7.14;100.00
47636;BME280;33364;50.766;15.338;2024-03-02T02:42:58;93979.50;;;7.17;100.00
47636;BME280;33364;50.766;15.338;2024-03-02T02:45:25;93979.41;;;7.08;100.00
47636;BME280;33364;50.766;15.338;2024-03-02T02:47:50;93976.38;;;7.15;100.00
47636;BME280;33364;50.766;15.338;2024-03-02T02:50:16;93985.41;;;7.09;100.00
47636;BME280;33364;50.766;15.338;2024-03-02T02:52:42;93977.53;;;7.09;100.00
47636;BME280;33364;50.766;15.338;2024-03-02T02:55:13;93975.41;;;7.11;100.00
47636;BME280;33364;50.766;15.338;2024-03-02T02:57:40;93974.91;;;7.09;100.00
47636;BME280;33364;50.766;15.338;2024-03-02T03:00:09;93976.47;;;7.10;100.00
47636;BME280;33364;50.766;15.338;2024-03-02T03:02:37;93977.53;;;7.09;100.00
47636;BME280;33364;50.766;15.338;2024-03-02T03:05:04;93972.34;;;7.04;100.00
47636;BME280;33364;50.766;15.338;2024-03-02T03:07:30;93974.16;;;7.08;100.00
47636;BME280;33364;50.766;15.338;2024-03-02T03:09:55;93974.63;;;7.10;99.91
47636;BME280;33364;50.766;15.338;2024-03-02T03:12:21;93977.06;;;7.07;99.79
47636;BME280;33364;50.766;15.338;2024-03-02T03:14:47;93978.19;;;7.01;99.88
47636;BME280;33364;50.766;15.338;2024-03-02T03:17:13;93975.22;;;7.07;100.00
47636;BME280;33364;50.766;15.338;2024-03-02T03:19:38;93982.84;;;7.04;99.82
47636;BME280;33364;50.766;15.338;2024-03-02T03:22:04;93979.94;;;7.05;99.80
47636;BME280;33364;50.766;15.338;2024-03-02T03:24:33;93978.69;;;7.03;99.66
47636;BME280;33364;50.766;15.338;2024-03-02T03:26:59;93971.38;;;7.00;99.65
47636;BME280;33364;50.766;15.338;2024-03-02T03:29:24;93977.59;;;7.04;99.25
47636;BME280;33364;50.766;15.338;2024-03-02T03:31:50;93980.53;;;7.02;99.18
47636;BME280;33364;50.766;15.338;2024-03-02T03:34:16;93977.69;;;6.99;99.36
47636;BME280;33364;50.766;15.338;2024-03-02T03:36:42;93973.91;;;7.05;99.37
47636;BME280;33364;50.766;15.338;2024-03-02T03:39:08;93974.50;;;7.02;99.25
47636;BME280;33364;50.766;15.338;2024-03-02T03:41:34;93981.31;;;7.03;99.35
47636;BME280;33364;50.766;15.338;2024-03-02T03:44:00;93975.38;;;6.97;99.26
47636;BME280;33364;50.766;15.338;2024-03-02T03:46:26;93980.31;;;6.99;99.39
47636;BME280;33364;50.766;15.338;2024-03-02T03:48:51;93984.56;;;6.95;99.60
47636;BME280;33364;50.766;15.338;2024-03-02T03:51:17;93983.78;;;6.94;99.37
47636;BME280;33364;50.766;15.338;2024-03-02T03:53:43;93978.00;;;6.97;99.05
47636;BME280;33364;50.766;15.338;2024-03-02T03:56:08;93977.22;;;6.97;98.90
47636;BME280;33364;50.766;15.338;2024-03-02T03:58:34;93982.16;;;6.98;98.94
47636;BME280;33364;50.766;15.338;2024-03-02T04:01:00;93977.22;;;6.97;98.82
47636;BME280;33364;50.766;15.338;2024-03-02T04:03:25;93985.09;;;6.97;98.71
47636;BME280;33364;50.766;15.338;2024-03-02T04:05:51;93986.13;;;6.96;98.99
47636;BME280;33364;50.766;15.338;2024-03-02T04:08:17;93986.13;;;6.96;98.89
47636;BME280;33364;50.766;15.338;2024-03-02T04:10:43;93993.75;;;6.97;99.00
47636;BME280;33364;50.766;15.338;2024-03-02T04:13:08;93991.38;;;6.96;99.16
47636;BME280;33364;50.766;15.338;2024-03-02T04:15:38;93996.13;;;6.94;99.17
47636;BME280;33364;50.766;15.338;2024-03-02T04:18:04;93991.66;;;6.94;99.08
47636;BME280;33364;50.766;15.338;2024-03-02T04:20:29;94002.75;;;6.91;99.38
47636;BME280;33364;50.766;15.338;2024-03-02T04:22:55;94013.72;;;6.93;99.57
47636;BME280;33364;50.766;15.338;2024-03-02T04:25:21;93995.66;;;6.92;99.28
47636;BME280;33364;50.766;15.338;2024-03-02T04:27:47;94007.50;;;6.89;99.01
47636;BME280;33364;50.766;15.338;2024-03-02T04:30:13;94009.06;;;6.90;99.06
47636;BME280;33364;50.766;15.338;2024-03-02T04:32:38;94007.50;;;6.89;99.10
47636;BME280;33364;50.766;15.338;2024-03-02T04:35:05;94015.63;;;6.88;99.10
47636;BME280;33364;50.766;15.338;2024-03-02T04:37:34;94008.56;;;6.88;98.97
47636;BME280;33364;50.766;15.338;2024-03-02T04:40:00;94016.22;;;6.85;98.25
47636;BME280;33364;50.766;15.338;2024-03-02T04:42:26;94022.75;;;6.87;98.54
47636;BME280;33364;50.766;15.338;2024-03-02T04:44:51;94025.06;;;6.89;98.48
47636;BME280;33364;50.766;15.338;2024-03-02T04:47:17;94024.59;;;6.87;98.19
47636;BME280;33364;50.766;15.338;2024-03-02T04:49:43;94022.25;;;6.85;98.28
47636;BME280;33364;50.766;15.338;2024-03-02T04:52:09;94024.59;;;6.87;97.94
47636;BME280;33364;50.766;15.338;2024-03-02T04:54:35;94033.25;;;6.87;97.96
47636;BME280;33364;50.766;15.338;2024-03-02T04:57:23;94020.88;;;6.88;98.11
47636;BME280;33364;50.766;15.338;2024-03-02T04:59:49;94034.59;;;6.85;98.19
47636;BME280;33364;50.766;15.338;2024-03-02T05:02:15;94038.84;;;6.81;98.08
47636;BME280;33364;50.766;15.338;2024-03-02T05:04:41;94042.97;;;6.87;97.75
47636;BME280;33364;50.766;15.338;2024-03-02T05:07:07;94048.34;;;6.76;97.88
47636;BME280;33364;50.766;15.338;2024-03-02T05:09:33;94047.28;;;6.77;97.88
47636;BME280;33364;50.766;15.338;2024-03-02T05:11:58;94048.63;;;6.75;97.88
47636;BME280;33364;50.766;15.338;2024-03-02T05:15:01;94054.09;;;6.78;98.22
47636;BME280;33364;50.766;15.338;2024-03-02T05:17:27;94060.69;;;6.76;98.26
47636;BME280;33364;50.766;15.338;2024-03-02T05:19:53;94058.34;;;6.74;97.80
47636;BME280;33364;50.766;15.338;2024-03-02T05:22:18;94055.72;;;6.74;97.62
47636;BME280;33364;50.766;15.338;2024-03-02T05:24:44;94056.31;;;6.71;97.46
47636;BME280;33364;50.766;15.338;2024-03-02T05:27:10;94058.91;;;6.71;97.42
47636;BME280;33364;50.766;15.338;2024-03-02T05:29:36;94068.63;;;6.71;97.48
47636;BME280;33364;50.766;15.338;2024-03-02T05:32:01;94064.16;;;6.71;97.76
47636;BME280;33364;50.766;15.338;2024-03-02T05:34:27;94064.16;;;6.71;97.62
47636;BME280;33364;50.766;15.338;2024-03-02T05:36:52;94067.84;;;6.70;97.59
47636;BME280;33364;50.766;15.338;2024-03-02T05:39:18;94064.72;;;6.68;97.81
47636;BME280;33364;50.766;15.338;2024-03-02T05:41:44;94071.03;;;6.67;97.67
47636;BME280;33364;50.766;15.338;2024-03-02T05:44:10;94071.75;;;6.73;97.57
47636;BME280;33364;50.766;15.338;2024-03-02T05:46:35;94075.22;;;6.68;97.17
47636;BME280;33364;50.766;15.338;2024-03-02T05:49:01;94076.19;;;6.72;97.27
47636;BME280;33364;50.766;15.338;2024-03-02T05:51:27;94078.34;;;6.70;97.00
47636;BME280;33364;50.766;15.338;2024-03-02T05:53:53;94079.91;;;6.71;96.98
47636;BME280;33364;50.766;15.338;2024-03-02T05:56:18;94077.56;;;6.70;97.30
47636;BME280;33364;50.766;15.338;2024-03-02T05:58:44;94076.78;;;6.69;97.53
47636;BME280;33364;50.766;15.338;2024-03-02T06:01:28;94076.78;;;6.69;97.53
47636;BME280;33364;50.766;15.338;2024-03-02T06:03:58;94075.22;;;6.68;97.80
47636;BME280;33364;50.766;15.338;2024-03-02T06:06:24;94081.81;;;6.66;97.84
47636;BME280;33364;50.766;15.338;2024-03-02T06:08:50;94082.56;;;6.66;97.83
47636;BME280;33364;50.766;15.338;2024-03-02T06:11:16;94086.28;;;6.65;97.74
47636;BME280;33364;50.766;15.338;2024-03-02T06:13:42;94094.63;;;6.67;97.61
47636;BME280;33364;50.766;15.338;2024-03-02T06:16:07;94102.81;;;6.66;97.60
47636;BME280;33364;50.766;15.338;2024-03-02T06:18:34;94097.75;;;6.69;97.81
47636;BME280;33364;50.766;15.338;2024-03-02T06:21:00;94092.59;;;6.64;97.43
47636;BME280;33364;50.766;15.338;2024-03-02T06:23:27;94089.19;;;6.64;97.62
47636;BME280;33364;50.766;15.338;2024-03-02T06:25:52;94092.66;;;6.59;97.89
47636;BME280;33364;50.766;15.338;2024-03-02T06:28:18;94094.69;;;6.62;97.91
47636;BME280;33364;50.766;15.338;2024-03-02T06:30:44;94098.69;;;6.60;98.20
47636;BME280;33364;50.766;15.338;2024-03-02T06:33:10;94094.22;;;6.60;98.12
47636;BME280;33364;50.766;15.338;2024-03-02T06:35:36;94101.22;;;6.65;97.92
47636;BME280;33364;50.766;15.338;2024-03-02T06:38:02;94114.63;;;6.63;97.97
47636;BME280;33364;50.766;15.338;2024-03-02T06:40:28;94106.25;;;6.61;98.10
47636;BME280;33364;50.766;15.338;2024-03-02T06:42:54;94106.25;;;6.61;98.38
47636;BME280;33364;50.766;15.338;2024-03-02T06:45:19;94109.16;;;6.60;98.08
47636;BME280;33364;50.766;15.338;2024-03-02T06:47:45;94117.59;;;6.57;97.33
47636;BME280;33364;50.766;15.338;2024-03-02T06:50:11;94127.75;;;6.63;97.40
47636;BME280;33364;50.766;15.338;2024-03-02T06:52:38;94126.69;;;6.64;97.16
47636;BME280;33364;50.766;15.338;2024-03-02T06:55:04;94131.34;;;6.67;97.37
47636;BME280;33364;50.766;15.338;2024-03-02T06:57:30;94131.88;;;6.69;97.10
47636;BME280;33364;50.766;15.338;2024-03-02T06:59:56;94124.00;;;6.69;97.11
47636;BME280;33364;50.766;15.338;2024-03-02T07:02:24;94129.78;;;6.66;97.53
47636;BME280;33364;50.766;15.338;2024-03-02T07:04:53;94132.94;;;6.68;97.31
47636;BME280;33364;50.766;15.338;2024-03-02T07:07:19;94133.50;;;6.65;97.46
47636;BME280;33364;50.766;15.338;2024-03-02T07:09:44;94133.50;;;6.65;97.30
47636;BME280;33364;50.766;15.338;2024-03-02T07:12:10;94133.50;;;6.65;97.45
47636;BME280;33364;50.766;15.338;2024-03-02T07:14:36;94136.84;;;6.71;97.75
47636;BME280;33364;50.766;15.338;2024-03-02T07:17:21;94143.41;;;6.68;97.64
47636;BME280;33364;50.766;15.338;2024-03-02T07:19:46;94153.41;;;6.66;97.72
47636;BME280;33364;50.766;15.338;2024-03-02T07:22:13;94152.66;;;6.66;97.59
47636;BME280;33364;50.766;15.338;2024-03-02T07:24:40;94142.63;;;6.68;97.71
47636;BME280;33364;50.766;15.338;2024-03-02T07:27:07;94139.53;;;6.66;97.72
47636;BME280;33364;50.766;15.338;2024-03-02T07:29:32;94147.34;;;6.71;97.77
47636;BME280;33364;50.766;15.338;2024-03-02T07:31:58;94147.34;;;6.71;97.71
47636;BME280;33364;50.766;15.338;2024-03-02T07:34:24;94154.13;;;6.72;97.46
47636;BME280;33364;50.766;15.338;2024-03-02T07:36:50;94150.44;;;6.73;97.73
47636;BME280;33364;50.766;15.338;2024-03-02T07:39:16;94150.22;;;6.69;97.37
47636;BME280;33364;50.766;15.338;2024-03-02T07:41:42;94149.44;;;6.69;97.54
47636;BME280;33364;50.766;15.338;2024-03-02T07:44:08;94151.81;;;6.70;97.80
47636;BME280;33364;50.766;15.338;2024-03-02T07:46:34;94138.19;;;6.68;97.87
47636;BME280;33364;50.766;15.338;2024-03-02T07:48:59;94147.34;;;6.71;97.69
47636;BME280;33364;50.766;15.338;2024-03-02T07:51:25;94150.97;;;6.75;97.90
47636;BME280;33364;50.766;15.338;2024-03-02T07:53:51;94154.38;;;6.75;97.83
47636;BME280;33364;50.766;15.338;2024-03-02T07:56:17;94149.13;;;6.75;97.58
47636;BME280;33364;50.766;15.338;2024-03-02T07:58:48;94155.69;;;6.73;97.45
47636;BME280;33364;50.766;15.338;2024-03-02T08:01:14;94151.22;;;6.73;97.33
47636;BME280;33364;50.766;15.338;2024-03-02T08:03:40;94157.84;;;6.71;97.00
47636;BME280;33364;50.766;15.338;2024-03-02T08:06:06;94153.59;;;6.75;96.89
47636;BME280;33364;50.766;15.338;2024-03-02T08:08:32;94154.91;;;6.72;96.51
47636;BME280;33364;50.766;15.338;2024-03-02T08:10:58;94146.03;;;6.68;96.42
47636;BME280;33364;50.766;15.338;2024-03-02T08:13:23;94152.78;;;6.74;96.44
47636;BME280;33364;50.766;15.338;2024-03-02T08:15:49;94149.19;;;6.70;96.68
47636;BME280;33364;50.766;15.338;2024-03-02T08:18:15;94146.25;;;6.72;96.69
47636;BME280;33364;50.766;15.338;2024-03-02T08:20:41;94150.22;;;6.69;96.55
47636;BME280;33364;50.766;15.338;2024-03-02T08:23:07;94155.41;;;6.74;96.55
47636;BME280;33364;50.766;15.338;2024-03-02T08:25:33;94156.47;;;6.73;96.53
47636;BME280;33364;50.766;15.338;2024-03-02T08:27:59;94164.41;;;6.68;95.79
47636;BME280;33364;50.766;15.338;2024-03-02T08:30:25;94164.28;;;6.78;96.04
47636;BME280;33364;50.766;15.338;2024-03-02T08:32:50;94161.59;;;6.84;96.02
47636;BME280;33364;50.766;15.338;2024-03-02T08:35:16;94170.53;;;6.83;95.61
47636;BME280;33364;50.766;15.338;2024-03-02T08:37:42;94176.63;;;6.78;95.86
47636;BME280;33364;50.766;15.338;2024-03-02T08:40:09;94174.31;;;6.76;95.63
47636;BME280;33364;50.766;15.338;2024-03-02T08:42:36;94168.03;;;6.72;95.59
47636;BME280;33364;50.766;15.338;2024-03-02T08:45:02;94170.09;;;6.75;95.57
47636;BME280;33364;50.766;15.338;2024-03-02T08:47:27;94171.94;;;6.75;95.40
47636;BME280;33364;50.766;15.338;2024-03-02T08:49:53;94170.06;;;6.81;95.41
47636;BME280;33364;50.766;15.338;2024-03-02T08:52:19;94167.38;;;6.86;95.46
47636;BME280;33364;50.766;15.338;2024-03-02T08:54:45;94167.63;;;6.84;94.92
47636;BME280;33364;50.766;15.338;2024-03-02T08:57:10;94170.47;;;6.88;94.68
47636;BME280;33364;50.766;15.338;2024-03-02T08:59:36;94169.41;;;6.89;94.56
47636;BME280;33364;50.766;15.338;2024-03-02T09:02:02;94167.84;;;6.88;94.40
47636;BME280;33364;50.766;15.338;2024-03-02T09:04:28;94158.84;;;6.94;94.68
47636;BME280;33364;50.766;15.338;2024-03-02T09:06:54;94164.59;;;6.96;94.56
47636;BME280;33364;50.766;15.338;2024-03-02T09:09:21;94168.81;;;6.97;94.29
47636;BME280;33364;50.766;15.338;2024-03-02T09:11:46;94167.44;;;6.99;94.48
47636;BME280;33364;50.766;15.338;2024-03-02T09:14:12;94167.09;;;7.06;94.29
47636;BME280;33364;50.766;15.338;2024-03-02T09:16:40;94175.50;;;7.08;94.03
47636;BME280;33364;50.766;15.338;2024-03-02T09:19:06;94168.03;;;7.15;93.96
47636;BME280;33364;50.766;15.338;2024-03-02T09:21:31;94165.34;;;7.20;93.33
47636;BME280;33364;50.766;15.338;2024-03-02T09:23:57;94177.91;;;7.23;93.42
47636;BME280;33364;50.766;15.338;2024-03-02T09:26:23;94160.59;;;7.22;93.03
47636;BME280;33364;50.766;15.338;2024-03-02T09:28:50;94168.97;;;7.24;92.22
47636;BME280;33364;50.766;15.338;2024-03-02T09:31:16;94167.34;;;7.28;92.30
47636;BME280;33364;50.766;15.338;2024-03-02T09:33:42;94173.59;;;7.13;92.22
47636;BME280;33364;50.766;15.338;2024-03-02T09:36:22;94168.97;;;7.24;91.96
47636;BME280;33364;50.766;15.338;2024-03-02T09:38:48;94177.34;;;7.26;91.69
47636;BME280;33364;50.766;15.338;2024-03-02T09:41:14;94188.91;;;7.25;90.80
47636;BME280;33364;50.766;15.338;2024-03-02T09:43:41;94183.09;;;7.28;91.88
47636;BME280;33364;50.766;15.338;2024-03-02T09:46:09;94185.72;;;7.28;91.47
47636;BME280;33364;50.766;15.338;2024-03-02T09:48:35;94178.25;;;7.35;91.14
47636;BME280;33364;50.766;15.338;2024-03-02T09:51:01;94175.16;;;7.33;90.82
47636;BME280;33364;50.766;15.338;2024-03-02T09:53:31;94179.13;;;7.49;91.01
47636;BME280;33364;50.766;15.338;2024-03-02T09:55:57;94177.75;;;7.52;90.60
47636;BME280;33364;50.766;15.338;2024-03-02T09:58:24;94177.41;;;7.58;90.24
47636;BME280;33364;50.766;15.338;2024-03-02T10:00:49;94176.72;;;7.53;89.44
47636;BME280;33364;50.766;15.338;2024-03-02T10:03:16;94175.06;;;7.57;89.59
47636;BME280;33364;50.766;15.338;2024-03-02T10:05:43;94178.06;;;7.50;90.13
47636;BME280;33364;50.766;15.338;2024-03-02T10:08:09;94175.28;;;7.60;89.89
47636;BME280;33364;50.766;15.338;2024-03-02T10:10:36;94168.47;;;7.59;89.82
47636;BME280;33364;50.766;15.338;2024-03-02T10:13:12;94165.97;;;7.68;89.10
47636;BME280;33364;50.766;15.338;2024-03-02T10:15:39;94177.88;;;7.79;89.59
47636;BME280;33364;50.766;15.338;2024-03-02T10:18:10;94176.66;;;7.90;88.84
47636;BME280;33364;50.766;15.338;2024-03-02T10:20:37;94170.13;;;7.88;88.54
47636;BME280;33364;50.766;15.338;2024-03-02T10:23:11;94166.81;;;7.82;88.22
47636;BME280;33364;50.766;15.338;2024-03-02T10:25:37;94171.84;;;7.79;88.09
47636;BME280;33364;50.766;15.338;2024-03-02T10:28:03;94159.59;;;7.88;87.84
47636;BME280;33364;50.766;15.338;2024-03-02T10:30:34;94162.81;;;7.85;88.13
47636;BME280;33364;50.766;15.338;2024-03-02T10:33:04;94164.47;;;7.81;87.62
47636;BME280;33364;50.766;15.338;2024-03-02T10:35:30;94167.28;;;7.84;88.06
47636;BME280;33364;50.766;15.338;2024-03-02T10:38:00;94170.72;;;7.85;88.97
47636;BME280;33364;50.766;15.338;2024-03-02T10:40:26;94160.97;;;7.85;88.82
47636;BME280;33364;50.766;15.338;2024-03-02T10:42:53;94162.31;;;7.83;88.67
47636;BME280;33364;50.766;15.338;2024-03-02T10:45:20;94161.41;;;7.74;88.34
47636;BME280;33364;50.766;15.338;2024-03-02T10:47:50;94172.44;;;7.76;88.50
47636;BME280;33364;50.766;15.338;2024-03-02T10:50:15;94170.28;;;7.78;88.42
47636;BME280;33364;50.766;15.338;2024-03-02T10:52:41;94165.81;;;7.78;88.21
47636;BME280;33364;50.766;15.338;2024-03-02T10:55:09;94169.81;;;7.76;89.28
47636;BME280;33364;50.766;15.338;2024-03-02T10:57:52;94166.81;;;7.82;89.87
47636;BME280;33364;50.766;15.338;2024-03-02T11:00:24;94161.47;;;7.87;89.28
47636;BME280;33364;50.766;15.338;2024-03-02T11:03:05;94161.97;;;7.89;88.58
47636;BME280;33364;50.766;15.338;2024-03-02T11:05:33;94163.06;;;8.02;88.04
47636;BME280;33364;50.766;15.338;2024-03-02T11:08:09;94163.94;;;7.97;88.61
47636;BME280;33364;50.766;15.338;2024-03-02T11:10:41;94163.09;;;7.83;87.40
47636;BME280;33364;50.766;15.338;2024-03-02T11:13:11;94157.47;;;7.90;88.21
47636;BME280;33364;50.766;15.338;2024-03-02T11:15:40;94158.47;;;7.94;87.72
47636;BME280;33364;50.766;15.338;2024-03-02T11:18:07;94155.63;;;7.90;87.38
47636;BME280;33364;50.766;15.338;2024-03-02T11:20:36;94150.31;;;8.09;86.99
47636;BME280;33364;50.766;15.338;2024-03-02T11:23:05;94151.88;;;8.10;86.69
47636;BME280;33364;50.766;15.338;2024-03-02T11:25:32;94153.25;;;8.07;87.06
47636;BME280;33364;50.766;15.338;2024-03-02T11:28:06;94157.16;;;8.10;86.93
47636;BME280;33364;50.766;15.338;2024-03-02T11:33:07;94151.31;;;8.13;87.42
47636;BME280;33364;50.766;15.338;2024-03-02T11:35:36;94153.53;;;8.06;87.42
47636;BME280;33364;50.766;15.338;2024-03-02T11:38:03;94155.19;;;8.02;86.57
47636;BME280;33364;50.766;15.338;2024-03-02T11:40:30;94156.59;;;8.13;86.70
47636;BME280;33364;50.766;15.338;2024-03-02T11:42:57;94155.56;;;8.09;86.72
47636;BME280;33364;50.766;15.338;2024-03-02T11:45:25;94150.03;;;8.11;86.67
47636;BME280;33364;50.766;15.338;2024-03-02T11:47:53;94158.53;;;8.21;86.73
47636;BME280;33364;50.766;15.338;2024-03-02T11:50:36;94153.00;;;8.23;86.37
47636;BME280;33364;50.766;15.338;2024-03-02T11:53:07;94154.44;;;8.15;86.49
47636;BME280;33364;50.766;15.338;2024-03-02T11:55:38;94160.09;;;8.22;86.71
47636;BME280;33364;50.766;15.338;2024-03-02T11:58:06;94169.06;;;8.21;86.51
47636;BME280;33364;50.766;15.338;2024-03-02T12:00:32;94163.22;;;8.24;86.33
47636;BME280;33364;50.766;15.338;2024-03-02T12:03:00;94156.41;;;8.23;86.01
47636;BME280;33364;50.766;15.338;2024-03-02T12:05:27;94160.09;;;8.22;85.97
47636;BME280;33364;50.766;15.338;2024-03-02T12:08:01;94157.97;;;8.24;85.74
47636;BME280;33364;50.766;15.338;2024-03-02T12:10:27;94161.53;;;8.33;86.51
47636;BME280;33364;50.766;15.338;2024-03-02T12:13:01;94159.50;;;8.25;86.71
47636;BME280;33364;50.766;15.338;2024-03-02T12:15:31;94159.91;;;8.19;86.35
47636;BME280;33364;50.766;15.338;2024-03-02T12:17:59;94151.16;;;8.23;86.47
47636;BME280;33364;50.766;15.338;2024-03-02T12:20:26;94155.03;;;8.26;86.65
47636;BME280;33364;50.766;15.338;2024-03-02T12:22:54;94156.59;;;8.27;86.72
47636;BME280;33364;50.766;15.338;2024-03-02T12:25:21;94157.47;;;8.22;86.08
47636;BME280;33364;50.766;15.338;2024-03-02T12:27:52;94155.81;;;8.26;86.05
47636;BME280;33364;50.766;15.338;2024-03-02T12:30:19;94154.19;;;8.30;85.92
47636;BME280;33364;50.766;15.338;2024-03-02T12:32:45;94155.25;;;8.29;85.25
47636;BME280;33364;50.766;15.338;2024-03-02T12:35:12;94156.06;;;8.30;85.24
47636;BME280;33364;50.766;15.338;2024-03-02T12:37:48;94151.19;;;8.37;85.44
47636;BME280;33364;50.766;15.338;2024-03-02T12:40:15;94154.03;;;8.40;85.40
47636;BME280;33364;50.766;15.338;2024-03-02T12:42:47;94157.81;;;8.48;85.42
47636;BME280;33364;50.766;15.338;2024-03-02T12:45:13;94150.63;;;8.54;85.36
47636;BME280;33364;50.766;15.338;2024-03-02T12:47:40;94148.66;;;8.59;84.96
47636;BME280;33364;50.766;15.338;2024-03-02T12:50:07;94149.56;;;8.55;84.32
47636;BME280;33364;50.766;15.338;2024-03-02T12:52:33;94145.94;;;8.51;84.38
47636;BME280;33364;50.766;15.338;2024-03-02T12:55:00;94142.91;;;8.57;84.65
47636;BME280;33364;50.766;15.338;2024-03-02T12:57:27;94141.56;;;8.60;84.34
47636;BME280;33364;50.766;15.338;2024-03-02T13:00:01;94139.34;;;8.67;84.68
47636;BME280;33364;50.766;15.338;2024-03-02T13:02:30;94135.41;;;8.78;84.85